sensor_id;sensor_type;location;lat;lon;timestamp;P1;durP1;ratioP1;P2;durP2;ratioP2
2542;SDS011;1116;51.502;7.414;2023-03-31T00:02:07;4.60;;;2.20;;
2542;SDS011;1116;51.502;7.414;2023-03-31T00:04:42;4.07;;;1.60;;
2542;SDS011;1116;51.502;7.414;2023-03-31T00:07:19;3.47;;;1.60;;
2542;SDS011;1116;51.502;7.414;2023-03-31T00:09:53;2.70;;;1.40;;
2542;SDS011;1116;51.502;7.414;2023-03-31T00:12:43;4.23;;;1.40;;
2542;SDS011;1116;51.502;7.414;2023-03-31T00:15:16;6.20;;;1.93;;
2542;SDS011;1116;51.502;7.414;2023-03-31T00:17:47;5.80;;;1.90;;
2542;SDS011;1116;51.502;7.414;2023-03-31T00:20:23;7.40;;;1.90;;
2542;SDS011;1116;51.502;7.414;2023-03-31T00:22:54;4.20;;;1.83;;
2542;SDS011;1116;51.502;7.414;2023-03-31T00:25:25;3.70;;;1.77;;
2542;SDS011;1116;51.502;7.414;2023-03-31T00:27:56;5.97;;;2.00;;
2542;SDS011;1116;51.502;7.414;2023-03-31T00:30:27;4.67;;;2.10;;
2542;SDS011;1116;51.502;7.414;2023-03-31T00:32:59;3.63;;;1.80;;
2542;SDS011;1116;51.502;7.414;2023-03-31T00:35:33;4.90;;;1.50;;
2542;SDS011;1116;51.502;7.414;2023-03-31T00:38:05;5.13;;;2.40;;
2542;SDS011;1116;51.502;7.414;2023-03-31T00:40:43;4.70;;;2.10;;
2542;SDS011;1116;51.502;7.414;2023-03-31T00:43:23;5.27;;;2.10;;
2542;SDS011;1116;51.502;7.414;2023-03-31T00:46:01;2.80;;;2.50;;
2542;SDS011;1116;51.502;7.414;2023-03-31T00:48:35;6.67;;;2.50;;
2542;SDS011;1116;51.502;7.414;2023-03-31T00:51:10;5.17;;;1.77;;
2542;SDS011;1116;51.502;7.414;2023-03-31T00:53:41;4.40;;;1.57;;
2542;SDS011;1116;51.502;7.414;2023-03-31T00:56:12;6.93;;;2.00;;
2542;SDS011;1116;51.502;7.414;2023-03-31T00:58:46;4.63;;;1.63;;
2542;SDS011;1116;51.502;7.414;2023-03-31T01:01:17;4.20;;;1.33;;
2542;SDS011;1116;51.502;7.414;2023-03-31T01:03:51;3.50;;;1.33;;
2542;SDS011;1116;51.502;7.414;2023-03-31T01:06:28;3.00;;;1.50;;
2542;SDS011;1116;51.502;7.414;2023-03-31T01:09:03;7.47;;;1.83;;
2542;SDS011;1116;51.502;7.414;2023-03-31T01:11:35;6.83;;;1.80;;
2542;SDS011;1116;51.502;7.414;2023-03-31T01:14:06;4.07;;;1.70;;
2542;SDS011;1116;51.502;7.414;2023-03-31T01:16:38;3.50;;;1.50;;
2542;SDS011;1116;51.502;7.414;2023-03-31T01:19:11;4.20;;;1.50;;
2542;SDS011;1116;51.502;7.414;2023-03-31T01:22:03;5.43;;;1.60;;
2542;SDS011;1116;51.502;7.414;2023-03-31T01:25:09;4.33;;;2.00;;
2542;SDS011;1116;51.502;7.414;2023-03-31T01:28:17;3.77;;;1.30;;
2542;SDS011;1116;51.502;7.414;2023-03-31T01:31:00;6.90;;;1.50;;
2542;SDS011;1116;51.502;7.414;2023-03-31T01:33:51;13.20;;;2.70;;
2542;SDS011;1116;51.502;7.414;2023-03-31T01:40:03;5.43;;;2.00;;
2542;SDS011;1116;51.502;7.414;2023-03-31T01:42:58;4.17;;;1.83;;
2542;SDS011;1116;51.502;7.414;2023-03-31T01:45:40;4.30;;;2.00;;
2542;SDS011;1116;51.502;7.414;2023-03-31T01:48:34;5.63;;;2.57;;
2542;SDS011;1116;51.502;7.414;2023-03-31T01:51:17;9.50;;;1.87;;
2542;SDS011;1116;51.502;7.414;2023-03-31T01:53:53;5.13;;;1.80;;
2542;SDS011;1116;51.502;7.414;2023-03-31T01:56:36;9.10;;;2.50;;
2542;SDS011;1116;51.502;7.414;2023-03-31T01:59:13;4.67;;;1.87;;
2542;SDS011;1116;51.502;7.414;2023-03-31T02:01:46;9.07;;;1.90;;
2542;SDS011;1116;51.502;7.414;2023-03-31T02:04:23;6.17;;;1.60;;
2542;SDS011;1116;51.502;7.414;2023-03-31T02:06:59;6.30;;;1.83;;
2542;SDS011;1116;51.502;7.414;2023-03-31T02:09:35;3.50;;;1.60;;
2542;SDS011;1116;51.502;7.414;2023-03-31T02:12:12;4.00;;;2.10;;
2542;SDS011;1116;51.502;7.414;2023-03-31T02:14:45;9.63;;;2.10;;
2542;SDS011;1116;51.502;7.414;2023-03-31T02:17:20;5.43;;;1.80;;
2542;SDS011;1116;51.502;7.414;2023-03-31T02:20:00;5.10;;;1.93;;
2542;SDS011;1116;51.502;7.414;2023-03-31T02:22:36;6.43;;;2.00;;
2542;SDS011;1116;51.502;7.414;2023-03-31T02:25:10;5.33;;;1.90;;
2542;SDS011;1116;51.502;7.414;2023-03-31T02:27:48;4.07;;;2.20;;
2542;SDS011;1116;51.502;7.414;2023-03-31T02:30:23;5.10;;;1.80;;
2542;SDS011;1116;51.502;7.414;2023-03-31T02:33:00;5.63;;;1.80;;
2542;SDS011;1116;51.502;7.414;2023-03-31T02:35:32;6.43;;;2.20;;
2542;SDS011;1116;51.502;7.414;2023-03-31T02:38:04;6.30;;;1.83;;
2542;SDS011;1116;51.502;7.414;2023-03-31T02:40:36;4.90;;;1.90;;
2542;SDS011;1116;51.502;7.414;2023-03-31T02:43:09;5.30;;;1.63;;
2542;SDS011;1116;51.502;7.414;2023-03-31T02:45:42;4.93;;;2.40;;
2542;SDS011;1116;51.502;7.414;2023-03-31T02:48:16;7.87;;;2.10;;
2542;SDS011;1116;51.502;7.414;2023-03-31T02:50:59;5.33;;;2.20;;
2542;SDS011;1116;51.502;7.414;2023-03-31T02:54:03;5.13;;;1.90;;
2542;SDS011;1116;51.502;7.414;2023-03-31T02:57:00;5.87;;;1.97;;
2542;SDS011;1116;51.502;7.414;2023-03-31T03:00:19;8.50;;;3.00;;
2542;SDS011;1116;51.502;7.414;2023-03-31T03:02:59;6.63;;;2.53;;
2542;SDS011;1116;51.502;7.414;2023-03-31T03:05:43;8.60;;;2.40;;
2542;SDS011;1116;51.502;7.414;2023-03-31T03:08:34;11.50;;;2.53;;
2542;SDS011;1116;51.502;7.414;2023-03-31T03:11:17;6.50;;;3.37;;
2542;SDS011;1116;51.502;7.414;2023-03-31T03:13:56;6.07;;;2.50;;
2542;SDS011;1116;51.502;7.414;2023-03-31T03:16:38;6.93;;;2.53;;
2542;SDS011;1116;51.502;7.414;2023-03-31T03:19:17;10.80;;;2.73;;
2542;SDS011;1116;51.502;7.414;2023-03-31T03:21:56;8.27;;;2.60;;
2542;SDS011;1116;51.502;7.414;2023-03-31T03:24:27;6.63;;;2.93;;
2542;SDS011;1116;51.502;7.414;2023-03-31T03:27:05;6.70;;;2.80;;
2542;SDS011;1116;51.502;7.414;2023-03-31T03:29:37;6.50;;;2.40;;
2542;SDS011;1116;51.502;7.414;2023-03-31T03:32:10;6.73;;;2.60;;
2542;SDS011;1116;51.502;7.414;2023-03-31T03:34:41;7.73;;;2.60;;
2542;SDS011;1116;51.502;7.414;2023-03-31T03:37:12;7.30;;;2.67;;
2542;SDS011;1116;51.502;7.414;2023-03-31T03:39:43;7.50;;;2.53;;
2542;SDS011;1116;51.502;7.414;2023-03-31T03:42:14;9.03;;;2.73;;
2542;SDS011;1116;51.502;7.414;2023-03-31T03:44:46;8.27;;;2.80;;
2542;SDS011;1116;51.502;7.414;2023-03-31T03:47:19;9.73;;;2.67;;
2542;SDS011;1116;51.502;7.414;2023-03-31T03:49:56;6.43;;;2.60;;
2542;SDS011;1116;51.502;7.414;2023-03-31T03:52:30;7.10;;;2.73;;
2542;SDS011;1116;51.502;7.414;2023-03-31T03:55:01;8.37;;;2.67;;
2542;SDS011;1116;51.502;7.414;2023-03-31T03:57:33;5.73;;;1.70;;
2542;SDS011;1116;51.502;7.414;2023-03-31T04:00:07;7.50;;;2.87;;
2542;SDS011;1116;51.502;7.414;2023-03-31T04:02:42;5.40;;;2.30;;
2542;SDS011;1116;51.502;7.414;2023-03-31T04:05:14;11.40;;;2.90;;
2542;SDS011;1116;51.502;7.414;2023-03-31T04:07:45;5.87;;;2.03;;
2542;SDS011;1116;51.502;7.414;2023-03-31T04:10:16;5.03;;;2.03;;
2542;SDS011;1116;51.502;7.414;2023-03-31T04:12:51;5.03;;;1.80;;
2542;SDS011;1116;51.502;7.414;2023-03-31T04:15:21;9.10;;;2.50;;
2542;SDS011;1116;51.502;7.414;2023-03-31T04:17:55;4.67;;;1.90;;
2542;SDS011;1116;51.502;7.414;2023-03-31T04:20:26;9.27;;;2.93;;
2542;SDS011;1116;51.502;7.414;2023-03-31T04:22:58;9.20;;;2.00;;
2542;SDS011;1116;51.502;7.414;2023-03-31T04:25:29;5.90;;;2.10;;
2542;SDS011;1116;51.502;7.414;2023-03-31T04:28:05;8.07;;;1.83;;
2542;SDS011;1116;51.502;7.414;2023-03-31T04:30:37;7.63;;;2.13;;
2542;SDS011;1116;51.502;7.414;2023-03-31T04:33:10;6.10;;;1.80;;
2542;SDS011;1116;51.502;7.414;2023-03-31T04:35:42;5.37;;;1.80;;
2542;SDS011;1116;51.502;7.414;2023-03-31T04:38:19;6.47;;;2.07;;
2542;SDS011;1116;51.502;7.414;2023-03-31T04:40:53;5.13;;;1.50;;
2542;SDS011;1116;51.502;7.414;2023-03-31T04:43:24;5.30;;;1.70;;
2542;SDS011;1116;51.502;7.414;2023-03-31T04:45:57;4.00;;;1.67;;
2542;SDS011;1116;51.502;7.414;2023-03-31T04:48:33;7.00;;;2.20;;
2542;SDS011;1116;51.502;7.414;2023-03-31T04:51:07;9.70;;;2.63;;
2542;SDS011;1116;51.502;7.414;2023-03-31T04:53:42;10.60;;;2.37;;
2542;SDS011;1116;51.502;7.414;2023-03-31T04:56:12;11.90;;;2.00;;
2542;SDS011;1116;51.502;7.414;2023-03-31T04:58:43;5.00;;;1.83;;
2542;SDS011;1116;51.502;7.414;2023-03-31T05:01:17;5.63;;;1.70;;
2542;SDS011;1116;51.502;7.414;2023-03-31T05:03:51;6.20;;;1.93;;
2542;SDS011;1116;51.502;7.414;2023-03-31T05:06:23;5.63;;;2.20;;
2542;SDS011;1116;51.502;7.414;2023-03-31T05:08:54;7.40;;;1.90;;
2542;SDS011;1116;51.502;7.414;2023-03-31T05:11:25;9.27;;;2.03;;
2542;SDS011;1116;51.502;7.414;2023-03-31T05:13:56;8.93;;;2.10;;
2542;SDS011;1116;51.502;7.414;2023-03-31T05:16:34;10.87;;;1.80;;
2542;SDS011;1116;51.502;7.414;2023-03-31T05:19:08;6.43;;;2.47;;
2542;SDS011;1116;51.502;7.414;2023-03-31T05:21:42;5.73;;;2.13;;
2542;SDS011;1116;51.502;7.414;2023-03-31T05:24:13;6.53;;;2.00;;
2542;SDS011;1116;51.502;7.414;2023-03-31T05:26:46;5.33;;;1.83;;
2542;SDS011;1116;51.502;7.414;2023-03-31T05:29:19;3.60;;;1.90;;
2542;SDS011;1116;51.502;7.414;2023-03-31T05:31:50;3.43;;;1.40;;
2542;SDS011;1116;51.502;7.414;2023-03-31T05:34:28;4.57;;;2.10;;
2542;SDS011;1116;51.502;7.414;2023-03-31T05:36:59;6.77;;;1.60;;
2542;SDS011;1116;51.502;7.414;2023-03-31T05:39:31;7.00;;;1.80;;
2542;SDS011;1116;51.502;7.414;2023-03-31T05:42:02;6.57;;;2.30;;
2542;SDS011;1116;51.502;7.414;2023-03-31T05:44:34;3.90;;;1.93;;
2542;SDS011;1116;51.502;7.414;2023-03-31T05:47:05;7.30;;;1.90;;
2542;SDS011;1116;51.502;7.414;2023-03-31T05:49:39;5.87;;;2.00;;
2542;SDS011;1116;51.502;7.414;2023-03-31T05:52:10;6.97;;;1.90;;
2542;SDS011;1116;51.502;7.414;2023-03-31T05:54:42;8.27;;;2.00;;
2542;SDS011;1116;51.502;7.414;2023-03-31T05:57:13;5.73;;;1.87;;
2542;SDS011;1116;51.502;7.414;2023-03-31T05:59:45;4.97;;;2.10;;
2542;SDS011;1116;51.502;7.414;2023-03-31T06:02:16;4.00;;;1.60;;
2542;SDS011;1116;51.502;7.414;2023-03-31T06:04:50;4.53;;;1.70;;
2542;SDS011;1116;51.502;7.414;2023-03-31T06:07:24;4.87;;;1.70;;
2542;SDS011;1116;51.502;7.414;2023-03-31T06:12:45;5.10;;;1.80;;
2542;SDS011;1116;51.502;7.414;2023-03-31T06:18:08;2.80;;;1.40;;
2542;SDS011;1116;51.502;7.414;2023-03-31T06:20:43;3.70;;;1.43;;
2542;SDS011;1116;51.502;7.414;2023-03-31T06:23:14;3.90;;;1.50;;
2542;SDS011;1116;51.502;7.414;2023-03-31T06:25:45;5.07;;;1.80;;
2542;SDS011;1116;51.502;7.414;2023-03-31T06:28:19;3.83;;;1.43;;
2542;SDS011;1116;51.502;7.414;2023-03-31T06:30:50;2.80;;;1.33;;
2542;SDS011;1116;51.502;7.414;2023-03-31T06:33:32;2.43;;;1.30;;
2542;SDS011;1116;51.502;7.414;2023-03-31T06:36:06;4.20;;;1.50;;
2542;SDS011;1116;51.502;7.414;2023-03-31T06:38:39;3.97;;;1.40;;
2542;SDS011;1116;51.502;7.414;2023-03-31T06:41:15;2.73;;;1.17;;
2542;SDS011;1116;51.502;7.414;2023-03-31T06:43:49;1.80;;;1.10;;
2542;SDS011;1116;51.502;7.414;2023-03-31T06:46:26;5.70;;;1.47;;
2542;SDS011;1116;51.502;7.414;2023-03-31T06:48:57;3.60;;;1.97;;
2542;SDS011;1116;51.502;7.414;2023-03-31T06:51:33;3.77;;;1.20;;
2542;SDS011;1116;51.502;7.414;2023-03-31T06:54:04;3.40;;;1.30;;
2542;SDS011;1116;51.502;7.414;2023-03-31T06:56:36;6.50;;;1.50;;
2542;SDS011;1116;51.502;7.414;2023-03-31T06:59:07;1.60;;;1.10;;
2542;SDS011;1116;51.502;7.414;2023-03-31T07:01:50;5.07;;;1.53;;
2542;SDS011;1116;51.502;7.414;2023-03-31T07:04:28;3.90;;;1.27;;
2542;SDS011;1116;51.502;7.414;2023-03-31T07:07:02;4.13;;;1.70;;
2542;SDS011;1116;51.502;7.414;2023-03-31T07:09:33;3.10;;;2.13;;
2542;SDS011;1116;51.502;7.414;2023-03-31T07:12:03;4.20;;;1.50;;
2542;SDS011;1116;51.502;7.414;2023-03-31T07:14:36;2.50;;;1.27;;
2542;SDS011;1116;51.502;7.414;2023-03-31T07:17:07;3.53;;;1.27;;
2542;SDS011;1116;51.502;7.414;2023-03-31T07:19:38;2.73;;;1.10;;
2542;SDS011;1116;51.502;7.414;2023-03-31T07:22:17;2.00;;;1.23;;
2542;SDS011;1116;51.502;7.414;2023-03-31T07:24:48;4.33;;;1.33;;
2542;SDS011;1116;51.502;7.414;2023-03-31T07:27:19;4.13;;;1.27;;
2542;SDS011;1116;51.502;7.414;2023-03-31T07:29:53;4.87;;;1.33;;
2542;SDS011;1116;51.502;7.414;2023-03-31T07:32:24;4.40;;;1.30;;
2542;SDS011;1116;51.502;7.414;2023-03-31T07:34:56;2.40;;;1.20;;
2542;SDS011;1116;51.502;7.414;2023-03-31T07:37:29;2.70;;;1.20;;
2542;SDS011;1116;51.502;7.414;2023-03-31T07:40:05;3.03;;;1.37;;
2542;SDS011;1116;51.502;7.414;2023-03-31T07:42:36;2.17;;;1.00;;
2542;SDS011;1116;51.502;7.414;2023-03-31T07:45:08;5.83;;;1.37;;
2542;SDS011;1116;51.502;7.414;2023-03-31T07:47:39;3.50;;;1.40;;
2542;SDS011;1116;51.502;7.414;2023-03-31T07:50:14;3.10;;;1.30;;
2542;SDS011;1116;51.502;7.414;2023-03-31T07:52:50;3.27;;;1.27;;
2542;SDS011;1116;51.502;7.414;2023-03-31T07:55:21;4.80;;;1.57;;
2542;SDS011;1116;51.502;7.414;2023-03-31T07:57:53;3.80;;;1.60;;
2542;SDS011;1116;51.502;7.414;2023-03-31T08:00:24;3.33;;;1.27;;
2542;SDS011;1116;51.502;7.414;2023-03-31T08:02:56;2.80;;;1.40;;
2542;SDS011;1116;51.502;7.414;2023-03-31T08:05:27;1.70;;;1.00;;
2542;SDS011;1116;51.502;7.414;2023-03-31T08:08:03;3.47;;;1.10;;
2542;SDS011;1116;51.502;7.414;2023-03-31T08:10:38;1.90;;;1.20;;
2542;SDS011;1116;51.502;7.414;2023-03-31T08:13:09;3.73;;;1.00;;
2542;SDS011;1116;51.502;7.414;2023-03-31T08:15:40;2.80;;;1.07;;
2542;SDS011;1116;51.502;7.414;2023-03-31T08:18:12;2.87;;;1.17;;
2542;SDS011;1116;51.502;7.414;2023-03-31T08:20:46;1.90;;;1.00;;
2542;SDS011;1116;51.502;7.414;2023-03-31T08:23:20;1.90;;;0.83;;
2542;SDS011;1116;51.502;7.414;2023-03-31T08:25:51;1.77;;;1.07;;
2542;SDS011;1116;51.502;7.414;2023-03-31T08:28:22;2.30;;;0.90;;
2542;SDS011;1116;51.502;7.414;2023-03-31T08:30:53;1.30;;;0.80;;
2542;SDS011;1116;51.502;7.414;2023-03-31T08:33:24;3.87;;;1.00;;
2542;SDS011;1116;51.502;7.414;2023-03-31T08:36:00;3.23;;;1.10;;
2542;SDS011;1116;51.502;7.414;2023-03-31T08:38:35;3.53;;;1.10;;
2542;SDS011;1116;51.502;7.414;2023-03-31T08:41:11;2.30;;;0.90;;
2542;SDS011;1116;51.502;7.414;2023-03-31T08:43:56;2.67;;;1.10;;
2542;SDS011;1116;51.502;7.414;2023-03-31T08:46:31;2.90;;;1.10;;
2542;SDS011;1116;51.502;7.414;2023-03-31T08:49:04;1.50;;;0.97;;
2542;SDS011;1116;51.502;7.414;2023-03-31T08:51:36;2.33;;;0.93;;
2542;SDS011;1116;51.502;7.414;2023-03-31T08:54:13;1.27;;;0.87;;
2542;SDS011;1116;51.502;7.414;2023-03-31T08:56:48;1.50;;;0.93;;
2542;SDS011;1116;51.502;7.414;2023-03-31T08:59:22;2.60;;;1.00;;
2542;SDS011;1116;51.502;7.414;2023-03-31T09:02:02;3.27;;;1.37;;
2542;SDS011;1116;51.502;7.414;2023-03-31T09:04:54;1.90;;;1.50;;
2542;SDS011;1116;51.502;7.414;2023-03-31T09:07:54;3.77;;;1.23;;
2542;SDS011;1116;51.502;7.414;2023-03-31T09:10:38;1.90;;;1.33;;
2542;SDS011;1116;51.502;7.414;2023-03-31T09:16:16;5.03;;;1.87;;
2542;SDS011;1116;51.502;7.414;2023-03-31T09:19:13;3.07;;;1.70;;
2542;SDS011;1116;51.502;7.414;2023-03-31T09:21:48;3.10;;;1.90;;
2542;SDS011;1116;51.502;7.414;2023-03-31T09:24:26;3.60;;;1.70;;
2542;SDS011;1116;51.502;7.414;2023-03-31T09:27:15;3.07;;;1.23;;
2542;SDS011;1116;51.502;7.414;2023-03-31T09:32:31;4.63;;;1.53;;
2542;SDS011;1116;51.502;7.414;2023-03-31T09:35:11;2.10;;;1.40;;
2542;SDS011;1116;51.502;7.414;2023-03-31T09:37:48;4.60;;;1.80;;
2542;SDS011;1116;51.502;7.414;2023-03-31T09:40:20;3.40;;;2.00;;
2542;SDS011;1116;51.502;7.414;2023-03-31T09:42:56;2.87;;;1.60;;
2542;SDS011;1116;51.502;7.414;2023-03-31T09:45:37;7.50;;;2.10;;
2542;SDS011;1116;51.502;7.414;2023-03-31T09:48:15;4.47;;;1.80;;
2542;SDS011;1116;51.502;7.414;2023-03-31T09:51:03;6.43;;;1.67;;
2542;SDS011;1116;51.502;7.414;2023-03-31T09:53:37;2.50;;;1.70;;
2542;SDS011;1116;51.502;7.414;2023-03-31T09:56:12;4.20;;;2.00;;
2542;SDS011;1116;51.502;7.414;2023-03-31T09:59:03;5.13;;;1.67;;
2542;SDS011;1116;51.502;7.414;2023-03-31T10:01:34;5.83;;;1.70;;
2542;SDS011;1116;51.502;7.414;2023-03-31T10:04:06;3.57;;;1.43;;
2542;SDS011;1116;51.502;7.414;2023-03-31T10:06:44;4.63;;;1.93;;
2542;SDS011;1116;51.502;7.414;2023-03-31T10:09:15;5.30;;;1.70;;
2542;SDS011;1116;51.502;7.414;2023-03-31T10:11:52;5.50;;;1.57;;
2542;SDS011;1116;51.502;7.414;2023-03-31T10:15:17;2.40;;;1.30;;
2542;SDS011;1116;51.502;7.414;2023-03-31T10:18:00;2.80;;;1.60;;
2542;SDS011;1116;51.502;7.414;2023-03-31T10:20:33;5.80;;;1.70;;
2542;SDS011;1116;51.502;7.414;2023-03-31T10:23:13;4.30;;;2.07;;
2542;SDS011;1116;51.502;7.414;2023-03-31T10:25:50;4.23;;;1.67;;
2542;SDS011;1116;51.502;7.414;2023-03-31T10:28:31;3.90;;;2.00;;
2542;SDS011;1116;51.502;7.414;2023-03-31T10:31:09;7.77;;;2.10;;
2542;SDS011;1116;51.502;7.414;2023-03-31T10:33:41;6.90;;;2.00;;
2542;SDS011;1116;51.502;7.414;2023-03-31T10:36:17;5.23;;;2.00;;
2542;SDS011;1116;51.502;7.414;2023-03-31T10:38:52;5.57;;;2.17;;
2542;SDS011;1116;51.502;7.414;2023-03-31T10:41:24;6.50;;;3.03;;
2542;SDS011;1116;51.502;7.414;2023-03-31T10:44:03;7.53;;;2.43;;
2542;SDS011;1116;51.502;7.414;2023-03-31T10:46:46;4.90;;;2.10;;
2542;SDS011;1116;51.502;7.414;2023-03-31T10:49:23;6.40;;;2.13;;
2542;SDS011;1116;51.502;7.414;2023-03-31T10:51:58;6.43;;;2.30;;
2542;SDS011;1116;51.502;7.414;2023-03-31T10:54:45;7.10;;;2.20;;
2542;SDS011;1116;51.502;7.414;2023-03-31T10:57:18;5.73;;;2.20;;
2542;SDS011;1116;51.502;7.414;2023-03-31T11:00:00;7.67;;;2.80;;
2542;SDS011;1116;51.502;7.414;2023-03-31T11:02:52;11.93;;;3.00;;
2542;SDS011;1116;51.502;7.414;2023-03-31T11:05:47;10.77;;;2.33;;
2542;SDS011;1116;51.502;7.414;2023-03-31T11:08:24;9.40;;;2.90;;
2542;SDS011;1116;51.502;7.414;2023-03-31T11:11:07;8.87;;;2.83;;
2542;SDS011;1116;51.502;7.414;2023-03-31T11:13:51;9.00;;;3.20;;
2542;SDS011;1116;51.502;7.414;2023-03-31T11:16:31;10.67;;;2.70;;
2542;SDS011;1116;51.502;7.414;2023-03-31T11:19:18;12.60;;;3.47;;
2542;SDS011;1116;51.502;7.414;2023-03-31T11:22:00;7.03;;;3.03;;
2542;SDS011;1116;51.502;7.414;2023-03-31T11:27:49;9.07;;;2.73;;
2542;SDS011;1116;51.502;7.414;2023-03-31T11:30:33;11.70;;;2.53;;
2542;SDS011;1116;51.502;7.414;2023-03-31T11:33:15;8.33;;;2.20;;
2542;SDS011;1116;51.502;7.414;2023-03-31T11:36:08;9.60;;;3.27;;
2542;SDS011;1116;51.502;7.414;2023-03-31T11:38:58;4.80;;;1.67;;
2542;SDS011;1116;51.502;7.414;2023-03-31T11:41:43;2.93;;;1.13;;
2542;SDS011;1116;51.502;7.414;2023-03-31T11:44:22;1.77;;;0.80;;
2542;SDS011;1116;51.502;7.414;2023-03-31T11:46:55;2.27;;;0.77;;
2542;SDS011;1116;51.502;7.414;2023-03-31T11:49:29;2.07;;;0.83;;
2542;SDS011;1116;51.502;7.414;2023-03-31T11:52:08;4.90;;;1.37;;
2542;SDS011;1116;51.502;7.414;2023-03-31T11:54:45;2.40;;;1.27;;
2542;SDS011;1116;51.502;7.414;2023-03-31T11:57:22;4.00;;;1.50;;
2542;SDS011;1116;51.502;7.414;2023-03-31T11:59:59;5.90;;;1.70;;
2542;SDS011;1116;51.502;7.414;2023-03-31T12:02:43;5.90;;;1.40;;
2542;SDS011;1116;51.502;7.414;2023-03-31T12:05:23;4.33;;;1.20;;
2542;SDS011;1116;51.502;7.414;2023-03-31T12:08:13;4.30;;;1.23;;
2542;SDS011;1116;51.502;7.414;2023-03-31T12:10:59;4.97;;;1.97;;
2542;SDS011;1116;51.502;7.414;2023-03-31T12:14:09;7.17;;;1.37;;
2542;SDS011;1116;51.502;7.414;2023-03-31T12:18:29;3.13;;;1.47;;
2542;SDS011;1116;51.502;7.414;2023-03-31T12:20:33;4.07;;;1.60;;
2542;SDS011;1116;51.502;7.414;2023-03-31T12:24:14;4.30;;;1.83;;
2542;SDS011;1116;51.502;7.414;2023-03-31T12:27:46;4.27;;;1.80;;
2542;SDS011;1116;51.502;7.414;2023-03-31T12:30:30;4.00;;;1.70;;
2542;SDS011;1116;51.502;7.414;2023-03-31T12:33:23;4.37;;;1.70;;
2542;SDS011;1116;51.502;7.414;2023-03-31T12:36:20;2.70;;;1.40;;
2542;SDS011;1116;51.502;7.414;2023-03-31T12:39:12;6.37;;;1.57;;
2542;SDS011;1116;51.502;7.414;2023-03-31T12:42:10;5.63;;;1.40;;
2542;SDS011;1116;51.502;7.414;2023-03-31T12:44:58;4.03;;;1.67;;
2542;SDS011;1116;51.502;7.414;2023-03-31T12:47:43;7.80;;;1.70;;
2542;SDS011;1116;51.502;7.414;2023-03-31T12:50:30;6.27;;;1.60;;
2542;SDS011;1116;51.502;7.414;2023-03-31T12:53:13;3.70;;;1.40;;
2542;SDS011;1116;51.502;7.414;2023-03-31T12:55:57;5.33;;;1.53;;
2542;SDS011;1116;51.502;7.414;2023-03-31T12:58:39;4.23;;;1.40;;
2542;SDS011;1116;51.502;7.414;2023-03-31T13:01:15;6.03;;;2.30;;
2542;SDS011;1116;51.502;7.414;2023-03-31T13:03:51;5.20;;;2.00;;
2542;SDS011;1116;51.502;7.414;2023-03-31T13:06:47;6.77;;;1.90;;
2542;SDS011;1116;51.502;7.414;2023-03-31T13:12:16;7.60;;;2.17;;
2542;SDS011;1116;51.502;7.414;2023-03-31T13:14:50;6.40;;;1.97;;
2542;SDS011;1116;51.502;7.414;2023-03-31T13:17:27;6.93;;;2.20;;
2542;SDS011;1116;51.502;7.414;2023-03-31T13:20:14;8.77;;;1.80;;
2542;SDS011;1116;51.502;7.414;2023-03-31T13:22:49;3.97;;;1.87;;
2542;SDS011;1116;51.502;7.414;2023-03-31T13:25:38;5.73;;;1.77;;
2542;SDS011;1116;51.502;7.414;2023-03-31T13:28:25;4.77;;;1.93;;
2542;SDS011;1116;51.502;7.414;2023-03-31T13:31:02;5.27;;;2.30;;
2542;SDS011;1116;51.502;7.414;2023-03-31T13:33:42;4.87;;;2.00;;
2542;SDS011;1116;51.502;7.414;2023-03-31T13:36:23;6.93;;;2.23;;
2542;SDS011;1116;51.502;7.414;2023-03-31T13:39:16;7.57;;;2.20;;
2542;SDS011;1116;51.502;7.414;2023-03-31T13:42:20;8.07;;;2.17;;
2542;SDS011;1116;51.502;7.414;2023-03-31T13:48:13;7.80;;;2.63;;
2542;SDS011;1116;51.502;7.414;2023-03-31T13:54:14;8.17;;;2.30;;
2542;SDS011;1116;51.502;7.414;2023-03-31T13:57:23;5.10;;;2.27;;
2542;SDS011;1116;51.502;7.414;2023-03-31T14:00:23;9.00;;;2.73;;
2542;SDS011;1116;51.502;7.414;2023-03-31T14:03:15;6.30;;;1.90;;
2542;SDS011;1116;51.502;7.414;2023-03-31T14:05:52;9.30;;;3.73;;
2542;SDS011;1116;51.502;7.414;2023-03-31T14:08:33;4.23;;;2.60;;
2542;SDS011;1116;51.502;7.414;2023-03-31T14:11:15;7.53;;;2.77;;
2542;SDS011;1116;51.502;7.414;2023-03-31T14:14:04;5.50;;;2.47;;
2542;SDS011;1116;51.502;7.414;2023-03-31T14:16:37;5.10;;;2.27;;
2542;SDS011;1116;51.502;7.414;2023-03-31T14:22:25;6.70;;;2.70;;
2542;SDS011;1116;51.502;7.414;2023-03-31T14:25:10;6.57;;;2.37;;
2542;SDS011;1116;51.502;7.414;2023-03-31T14:27:51;6.47;;;2.80;;
2542;SDS011;1116;51.502;7.414;2023-03-31T14:30:38;5.30;;;2.03;;
2542;SDS011;1116;51.502;7.414;2023-03-31T14:33:28;8.70;;;2.50;;
2542;SDS011;1116;51.502;7.414;2023-03-31T14:36:10;6.73;;;2.10;;
2542;SDS011;1116;51.502;7.414;2023-03-31T14:38:49;8.03;;;2.40;;
2542;SDS011;1116;51.502;7.414;2023-03-31T14:41:23;4.73;;;1.83;;
2542;SDS011;1116;51.502;7.414;2023-03-31T14:43:59;3.70;;;1.70;;
2542;SDS011;1116;51.502;7.414;2023-03-31T14:46:35;4.47;;;1.70;;
2542;SDS011;1116;51.502;7.414;2023-03-31T14:49:14;3.57;;;1.50;;
2542;SDS011;1116;51.502;7.414;2023-03-31T14:51:58;7.03;;;2.13;;
2542;SDS011;1116;51.502;7.414;2023-03-31T14:54:33;7.20;;;1.60;;
2542;SDS011;1116;51.502;7.414;2023-03-31T14:57:08;4.60;;;1.87;;
2542;SDS011;1116;51.502;7.414;2023-03-31T14:59:41;4.30;;;1.67;;
2542;SDS011;1116;51.502;7.414;2023-03-31T15:02:18;4.50;;;1.43;;
2542;SDS011;1116;51.502;7.414;2023-03-31T15:05:02;4.57;;;1.63;;
2542;SDS011;1116;51.502;7.414;2023-03-31T15:07:38;4.23;;;1.50;;
2542;SDS011;1116;51.502;7.414;2023-03-31T15:10:12;4.20;;;2.30;;
2542;SDS011;1116;51.502;7.414;2023-03-31T15:12:48;5.40;;;2.00;;
2542;SDS011;1116;51.502;7.414;2023-03-31T15:15:28;3.60;;;2.00;;
2542;SDS011;1116;51.502;7.414;2023-03-31T15:18:02;4.07;;;1.73;;
2542;SDS011;1116;51.502;7.414;2023-03-31T15:20:38;4.73;;;1.93;;
2542;SDS011;1116;51.502;7.414;2023-03-31T15:23:20;6.77;;;2.43;;
2542;SDS011;1116;51.502;7.414;2023-03-31T15:25:59;5.60;;;2.20;;
2542;SDS011;1116;51.502;7.414;2023-03-31T15:28:51;2.53;;;2.10;;
2542;SDS011;1116;51.502;7.414;2023-03-31T15:31:27;6.60;;;2.37;;
2542;SDS011;1116;51.502;7.414;2023-03-31T15:33:58;5.73;;;1.87;;
2542;SDS011;1116;51.502;7.414;2023-03-31T15:36:30;2.37;;;1.57;;
2542;SDS011;1116;51.502;7.414;2023-03-31T15:39:03;1.97;;;1.43;;
2542;SDS011;1116;51.502;7.414;2023-03-31T15:41:38;2.50;;;1.50;;
2542;SDS011;1116;51.502;7.414;2023-03-31T15:47:16;4.30;;;1.53;;
2542;SDS011;1116;51.502;7.414;2023-03-31T15:49:49;7.57;;;2.90;;
2542;SDS011;1116;51.502;7.414;2023-03-31T15:52:25;3.83;;;1.60;;
2542;SDS011;1116;51.502;7.414;2023-03-31T15:55:20;4.40;;;1.70;;
2542;SDS011;1116;51.502;7.414;2023-03-31T15:57:56;6.00;;;1.90;;
2542;SDS011;1116;51.502;7.414;2023-03-31T16:00:40;5.40;;;1.80;;
2542;SDS011;1116;51.502;7.414;2023-03-31T16:03:16;4.27;;;1.70;;
2542;SDS011;1116;51.502;7.414;2023-03-31T16:06:02;5.13;;;1.77;;
2542;SDS011;1116;51.502;7.414;2023-03-31T16:08:39;6.47;;;1.90;;
2542;SDS011;1116;51.502;7.414;2023-03-31T16:11:17;3.87;;;1.23;;
2542;SDS011;1116;51.502;7.414;2023-03-31T16:13:51;4.40;;;1.60;;
2542;SDS011;1116;51.502;7.414;2023-03-31T16:16:26;1.47;;;1.30;;
2542;SDS011;1116;51.502;7.414;2023-03-31T16:19:01;4.80;;;1.60;;
2542;SDS011;1116;51.502;7.414;2023-03-31T16:21:37;5.80;;;1.93;;
2542;SDS011;1116;51.502;7.414;2023-03-31T16:24:13;4.70;;;1.53;;
2542;SDS011;1116;51.502;7.414;2023-03-31T16:26:50;4.73;;;1.37;;
2542;SDS011;1116;51.502;7.414;2023-03-31T16:29:22;3.60;;;1.50;;
2542;SDS011;1116;51.502;7.414;2023-03-31T16:32:04;3.83;;;1.50;;
2542;SDS011;1116;51.502;7.414;2023-03-31T16:34:53;4.07;;;1.30;;
2542;SDS011;1116;51.502;7.414;2023-03-31T16:37:26;2.10;;;1.40;;
2542;SDS011;1116;51.502;7.414;2023-03-31T16:39:57;2.30;;;1.10;;
2542;SDS011;1116;51.502;7.414;2023-03-31T16:42:30;2.00;;;0.87;;
2542;SDS011;1116;51.502;7.414;2023-03-31T16:45:02;2.00;;;0.90;;
2542;SDS011;1116;51.502;7.414;2023-03-31T16:47:45;3.77;;;1.10;;
2542;SDS011;1116;51.502;7.414;2023-03-31T16:50:54;4.53;;;1.33;;
2542;SDS011;1116;51.502;7.414;2023-03-31T16:53:49;2.00;;;1.00;;
2542;SDS011;1116;51.502;7.414;2023-03-31T16:56:25;5.37;;;1.53;;
2542;SDS011;1116;51.502;7.414;2023-03-31T16:58:59;3.57;;;1.73;;